This is the latest recevied weather packets stored in our database for station/object KC4JY. If no packets are shown the sender has not sent any weather packets the latest 10 day(s).
| Time | Temp. | Humidity | Pressure | Rain* | Wind** | Luminosity | Snow |
|---|---|---|---|---|---|---|---|
| 1777393843 | 17.78° C | 58% | 1019.7 hPa | 0 mm | - | - | - |
| 1777392932 | 17.22° C | 58% | 1020.4 hPa | 0 mm | - | - | - |
| 1777392030 | 17.78° C | 59% | 1021.1 hPa | 0 mm | - | - | - |
| 1777391127 | 16.67° C | 60% | 1021.8 hPa | 0 mm | - | - | - |
| 1777390226 | 16.67° C | 62% | 1022.4 hPa | 0 mm | - | - | - |
| 1777389313 | 16.67° C | 59% | 1022.7 hPa | 0 mm | - | - | - |
| 1777388409 | 16.11° C | 60% | 1023 hPa | 0 mm | - | - | - |
| 1777387560 | 15.56° C | 60% | 1023.1 hPa | 0 mm | - | - | - |
| 1777386648 | 16.11° C | 56% | 1023.2 hPa | 0 mm | - | - | - |
| 1777385750 | 16.67° C | 58% | 1023.8 hPa | 0 mm | - | - | - |
| 1777384825 | 15.56° C | 64% | 1024 hPa | 0 mm | - | - | - |
| 1777383903 | 15° C | 68% | 1024.2 hPa | 0 mm | - | - | - |
| 1777383059 | 14.44° C | 71% | 1024.3 hPa | 0 mm | - | - | - |
| 1777382146 | 13.33° C | 74% | 1024.2 hPa | 0 mm | - | - | - |
| 1777381237 | 12.22° C | 76% | 1024.5 hPa | 0 mm | - | - | - |
| 1777380336 | 11.67° C | 78% | 1024.6 hPa | 0 mm | - | - | - |
| 1777379442 | 10.56° C | 80% | 1024.3 hPa | 0 mm | - | - | - |
| 1777378528 | 10° C | 82% | 1023.3 hPa | 0 mm | - | - | - |
| 1777377627 | 9.44° C | 85% | 1023 hPa | 0 mm | - | - | - |
| 1777376734 | 8.89° C | 88% | 1023.3 hPa | 0 mm | - | - | - |
| 1777375827 | 7.78° C | 91% | 1023 hPa | 0 mm | - | - | - |
| 1777374925 | - | - | 1021.9 hPa | 0 mm | - | - | - |
| 1777374022 | - | - | 1021.4 hPa | 0 mm | - | - | - |
| 1777373135 | - | - | 1021.2 hPa | 0 mm | - | - | - |
| 1777372213 | - | - | 1021.3 hPa | 0 mm | - | - | - |
* Rain latest hour (hover to see other rain measurements)
** Current wind speed in m/s (hover to see current wind gust speed)